Terminal Aerodrome Forecast
Issued by NWS

Home | Current Version | Previous Version | Text Only | Print | Product List | Glossary On
Versions: 1 2 3 4 5 6 7 8 9 10 11 12 13 14 15 16 17 18 19 20 21 22 23 24 25 26
000
FTUS41 KCTP 110559
TAFJST
TAF
KJST 110559Z 1106/1206 25013G19KT P6SM OVC030
     FM110730 26011KT P6SM OVC025
     FM110900 27011KT 4SM -SN OVC015
     FM111500 25008KT P6SM OVC025
     FM112100 20005KT P6SM OVC050=

USA.gov is the U.S. government's official web portal to all federal, state and local government web resources and services.